sensor_id;sensor_type;location;lat;lon;timestamp;pressure;altitude;pressure_sealevel;temperature
49593;BMP280;35499;51.482;4.264;2024-02-15T00:01:30;101575.53;;;12.76
49593;BMP280;35499;51.482;4.264;2024-02-15T00:03:55;101569.53;;;12.76
49593;BMP280;35499;51.482;4.264;2024-02-15T00:06:20;101584.13;;;12.75
49593;BMP280;35499;51.482;4.264;2024-02-15T00:08:46;101575.53;;;12.76
49593;BMP280;35499;51.482;4.264;2024-02-15T00:11:11;101573.81;;;12.75
49593;BMP280;35499;51.482;4.264;2024-02-15T00:13:39;101572.16;;;12.74
49593;BMP280;35499;51.482;4.264;2024-02-15T00:16:04;101576.38;;;12.80
49593;BMP280;35499;51.482;4.264;2024-02-15T00:18:31;101571.22;;;12.80
49593;BMP280;35499;51.482;4.264;2024-02-15T00:20:56;101584.13;;;12.75
49593;BMP280;35499;51.482;4.264;2024-02-15T00:23:22;101575.53;;;12.79
49593;BMP280;35499;51.482;4.264;2024-02-15T00:25:47;101578.91;;;12.81
49593;BMP280;35499;51.482;4.264;2024-02-15T00:28:12;101582.34;;;12.83
49593;BMP280;35499;51.482;4.264;2024-02-15T00:30:38;101577.19;;;12.80
49593;BMP280;35499;51.482;4.264;2024-02-15T00:33:03;101569.47;;;12.80
49593;BMP280;35499;51.482;4.264;2024-02-15T00:35:29;101573.75;;;12.81
49593;BMP280;35499;51.482;4.264;2024-02-15T00:37:54;101569.47;;;12.80
49593;BMP280;35499;51.482;4.264;2024-02-15T00:40:19;101566.91;;;12.80
49593;BMP280;35499;51.482;4.264;2024-02-15T00:42:46;101569.47;;;12.80
49593;BMP280;35499;51.482;4.264;2024-02-15T00:45:11;101564.31;;;12.83
49593;BMP280;35499;51.482;4.264;2024-02-15T00:47:37;101560.00;;;12.82
49593;BMP280;35499;51.482;4.264;2024-02-15T00:50:08;101552.28;;;12.81
49593;BMP280;35499;51.482;4.264;2024-02-15T00:52:34;101560.88;;;12.81
49593;BMP280;35499;51.482;4.264;2024-02-15T00:54:59;101564.31;;;12.80
49593;BMP280;35499;51.482;4.264;2024-02-15T00:57:24;101552.31;;;12.79
49593;BMP280;35499;51.482;4.264;2024-02-15T00:59:49;101553.19;;;12.75
49593;BMP280;35499;51.482;4.264;2024-02-15T01:02:17;101556.69;;;12.74
49593;BMP280;35499;51.482;4.264;2024-02-15T01:05:08;101552.41;;;12.72
49593;BMP280;35499;51.482;4.264;2024-02-15T01:07:35;101554.97;;;12.70
49593;BMP280;35499;51.482;4.264;2024-02-15T01:10:00;101554.13;;;12.71
49593;BMP280;35499;51.482;4.264;2024-02-15T01:12:25;101547.25;;;12.72
49593;BMP280;35499;51.482;4.264;2024-02-15T01:14:51;101532.69;;;12.70
49593;BMP280;35499;51.482;4.264;2024-02-15T01:17:16;101534.38;;;12.70
49593;BMP280;35499;51.482;4.264;2024-02-15T01:19:42;101539.53;;;12.70
49593;BMP280;35499;51.482;4.264;2024-02-15T01:22:07;101530.97;;;12.70
49593;BMP280;35499;51.482;4.264;2024-02-15T01:24:33;101536.13;;;12.70
49593;BMP280;35499;51.482;4.264;2024-02-15T01:26:58;101533.50;;;12.71
49593;BMP280;35499;51.482;4.264;2024-02-15T01:29:23;101532.63;;;12.74
49593;BMP280;35499;51.482;4.264;2024-02-15T01:31:51;101530.06;;;12.74
49593;BMP280;35499;51.482;4.264;2024-02-15T01:34:16;101530.00;;;12.75
49593;BMP280;35499;51.482;4.264;2024-02-15T01:36:42;101536.88;;;12.78
49593;BMP280;35499;51.482;4.264;2024-02-15T01:39:07;101527.41;;;12.78
49593;BMP280;35499;51.482;4.264;2024-02-15T01:41:32;101527.41;;;12.80
49593;BMP280;35499;51.482;4.264;2024-02-15T01:43:58;101523.06;;;12.82
49593;BMP280;35499;51.482;4.264;2024-02-15T01:46:24;101524.78;;;12.83
49593;BMP280;35499;51.482;4.264;2024-02-15T01:48:51;101530.75;;;12.86
49593;BMP280;35499;51.482;4.264;2024-02-15T01:51:16;101525.56;;;12.88
49593;BMP280;35499;51.482;4.264;2024-02-15T01:53:43;101523.84;;;12.88
49593;BMP280;35499;51.482;4.264;2024-02-15T01:56:10;101516.97;;;12.90
49593;BMP280;35499;51.482;4.264;2024-02-15T01:58:39;101520.34;;;12.92
49593;BMP280;35499;51.482;4.264;2024-02-15T02:01:05;101527.22;;;12.93
49593;BMP280;35499;51.482;4.264;2024-02-15T02:03:31;101530.66;;;12.95
49593;BMP280;35499;51.482;4.264;2024-02-15T02:05:56;101510.03;;;12.92
49593;BMP280;35499;51.482;4.264;2024-02-15T02:08:22;101516.09;;;12.89
49593;BMP280;35499;51.482;4.264;2024-02-15T02:10:47;101511.81;;;12.87
49593;BMP280;35499;51.482;4.264;2024-02-15T02:13:13;101504.97;;;12.86
49593;BMP280;35499;51.482;4.264;2024-02-15T02:15:38;101522.13;;;12.87
49593;BMP280;35499;51.482;4.264;2024-02-15T02:18:04;101515.31;;;12.83
49593;BMP280;35499;51.482;4.264;2024-02-15T02:20:34;101507.59;;;12.83
49593;BMP280;35499;51.482;4.264;2024-02-15T02:23:26;101519.63;;;12.83
49593;BMP280;35499;51.482;4.264;2024-02-15T02:25:52;101506.75;;;12.81
49593;BMP280;35499;51.482;4.264;2024-02-15T02:28:17;101504.22;;;12.80
49593;BMP280;35499;51.482;4.264;2024-02-15T02:30:43;101509.38;;;12.78
49593;BMP280;35499;51.482;4.264;2024-02-15T02:33:13;101502.50;;;12.76
49593;BMP280;35499;51.482;4.264;2024-02-15T02:35:47;101480.22;;;12.75
49593;BMP280;35499;51.482;4.264;2024-02-15T02:38:13;101491.41;;;12.72
49593;BMP280;35499;51.482;4.264;2024-02-15T02:40:40;101488.81;;;12.71
49593;BMP280;35499;51.482;4.264;2024-02-15T02:43:05;101491.44;;;12.70
49593;BMP280;35499;51.482;4.264;2024-02-15T02:45:30;101489.75;;;12.67
49593;BMP280;35499;51.482;4.264;2024-02-15T02:47:55;101485.50;;;12.65
49593;BMP280;35499;51.482;4.264;2024-02-15T02:50:21;101492.38;;;12.64
49593;BMP280;35499;51.482;4.264;2024-02-15T02:52:47;101492.38;;;12.64
49593;BMP280;35499;51.482;4.264;2024-02-15T02:55:14;101487.22;;;12.64
49593;BMP280;35499;51.482;4.264;2024-02-15T02:57:39;101498.38;;;12.65
49593;BMP280;35499;51.482;4.264;2024-02-15T03:00:06;101479.50;;;12.63
49593;BMP280;35499;51.482;4.264;2024-02-15T03:02:38;101486.38;;;12.64
49593;BMP280;35499;51.482;4.264;2024-02-15T03:05:04;101481.22;;;12.64
49593;BMP280;35499;51.482;4.264;2024-02-15T03:07:32;101470.91;;;12.62
49593;BMP280;35499;51.482;4.264;2024-02-15T03:09:58;101475.22;;;12.62
49593;BMP280;35499;51.482;4.264;2024-02-15T03:12:23;101474.38;;;12.60
49593;BMP280;35499;51.482;4.264;2024-02-15T03:14:48;101476.09;;;12.58
49593;BMP280;35499;51.482;4.264;2024-02-15T03:17:14;101468.38;;;12.58
49593;BMP280;35499;51.482;4.264;2024-02-15T03:19:39;101460.63;;;12.58
49593;BMP280;35499;51.482;4.264;2024-02-15T03:22:06;101462.34;;;12.57
49593;BMP280;35499;51.482;4.264;2024-02-15T03:24:31;101468.38;;;12.56
49593;BMP280;35499;51.482;4.264;2024-02-15T03:26:57;101468.41;;;12.55
49593;BMP280;35499;51.482;4.264;2024-02-15T03:29:22;101474.44;;;12.51
49593;BMP280;35499;51.482;4.264;2024-02-15T03:31:47;101461.63;;;12.47
49593;BMP280;35499;51.482;4.264;2024-02-15T03:34:14;101465.06;;;12.46
49593;BMP280;35499;51.482;4.264;2024-02-15T03:36:41;101459.09;;;12.45
49593;BMP280;35499;51.482;4.264;2024-02-15T03:39:06;101468.50;;;12.46
49593;BMP280;35499;51.482;4.264;2024-02-15T03:41:33;101450.50;;;12.43
49593;BMP280;35499;51.482;4.264;2024-02-15T03:43:58;101462.53;;;12.44
49593;BMP280;35499;51.482;4.264;2024-02-15T03:46:25;101454.81;;;12.43
49593;BMP280;35499;51.482;4.264;2024-02-15T03:48:50;101447.06;;;12.44
49593;BMP280;35499;51.482;4.264;2024-02-15T03:51:17;101442.78;;;12.45
49593;BMP280;35499;51.482;4.264;2024-02-15T03:53:44;101439.34;;;12.44
49593;BMP280;35499;51.482;4.264;2024-02-15T03:56:09;101439.34;;;12.43
49593;BMP280;35499;51.482;4.264;2024-02-15T03:58:34;101441.06;;;12.42
49593;BMP280;35499;51.482;4.264;2024-02-15T04:01:02;101442.78;;;12.42
49593;BMP280;35499;51.482;4.264;2024-02-15T04:03:31;101447.06;;;12.44
49593;BMP280;35499;51.482;4.264;2024-02-15T04:05:57;101435.94;;;12.41
49593;BMP280;35499;51.482;4.264;2024-02-15T04:08:23;101440.22;;;12.43
49593;BMP280;35499;51.482;4.264;2024-02-15T04:10:49;101436.78;;;12.43
49593;BMP280;35499;51.482;4.264;2024-02-15T04:13:14;101434.19;;;12.43
49593;BMP280;35499;51.482;4.264;2024-02-15T04:15:39;101441.06;;;12.45
49593;BMP280;35499;51.482;4.264;2024-02-15T04:18:04;101446.22;;;12.42
49593;BMP280;35499;51.482;4.264;2024-02-15T04:20:30;101440.22;;;12.42
49593;BMP280;35499;51.482;4.264;2024-02-15T04:22:56;101441.94;;;12.41
49593;BMP280;35499;51.482;4.264;2024-02-15T04:25:23;101445.38;;;12.40
49593;BMP280;35499;51.482;4.264;2024-02-15T04:27:53;101447.97;;;12.40
49593;BMP280;35499;51.482;4.264;2024-02-15T04:30:18;101454.81;;;12.43
49593;BMP280;35499;51.482;4.264;2024-02-15T04:32:44;101444.56;;;12.40
49593;BMP280;35499;51.482;4.264;2024-02-15T04:35:09;101440.22;;;12.40
49593;BMP280;35499;51.482;4.264;2024-02-15T04:37:35;101453.09;;;12.40
49593;BMP280;35499;51.482;4.264;2024-02-15T04:40:02;101453.09;;;12.40
49593;BMP280;35499;51.482;4.264;2024-02-15T04:42:35;101453.94;;;12.42
49593;BMP280;35499;51.482;4.264;2024-02-15T04:45:05;101451.44;;;12.39
49593;BMP280;35499;51.482;4.264;2024-02-15T04:47:33;101436.84;;;12.38
49593;BMP280;35499;51.482;4.264;2024-02-15T04:49:59;101435.13;;;12.39
49593;BMP280;35499;51.482;4.264;2024-02-15T04:52:24;101444.56;;;12.38
49593;BMP280;35499;51.482;4.264;2024-02-15T04:54:50;101449.72;;;12.37
49593;BMP280;35499;51.482;4.264;2024-02-15T04:57:15;101452.28;;;12.38
49593;BMP280;35499;51.482;4.264;2024-02-15T04:59:41;101446.28;;;12.36
49593;BMP280;35499;51.482;4.264;2024-02-15T05:02:12;101454.03;;;12.36
49593;BMP280;35499;51.482;4.264;2024-02-15T05:04:37;101457.47;;;12.35
49593;BMP280;35499;51.482;4.264;2024-02-15T05:07:03;101445.47;;;12.33
49593;BMP280;35499;51.482;4.264;2024-02-15T05:09:29;101437.75;;;12.33
49593;BMP280;35499;51.482;4.264;2024-02-15T05:11:56;101438.63;;;12.34
49593;BMP280;35499;51.482;4.264;2024-02-15T05:14:22;101428.31;;;12.32
49593;BMP280;35499;51.482;4.264;2024-02-15T05:16:49;101418.03;;;12.32
49593;BMP280;35499;51.482;4.264;2024-02-15T05:19:15;101417.16;;;12.34
49593;BMP280;35499;51.482;4.264;2024-02-15T05:21:41;101405.13;;;12.32
49593;BMP280;35499;51.482;4.264;2024-02-15T05:24:10;101415.44;;;12.32
49593;BMP280;35499;51.482;4.264;2024-02-15T05:26:36;101402.56;;;12.31
49593;BMP280;35499;51.482;4.264;2024-02-15T05:29:01;101397.47;;;12.29
49593;BMP280;35499;51.482;4.264;2024-02-15T05:31:26;101401.75;;;12.29
49593;BMP280;35499;51.482;4.264;2024-02-15T05:33:53;101387.16;;;12.28
49593;BMP280;35499;51.482;4.264;2024-02-15T05:36:20;101394.91;;;12.28
49593;BMP280;35499;51.482;4.264;2024-02-15T05:38:53;101385.47;;;12.27
49593;BMP280;35499;51.482;4.264;2024-02-15T05:41:19;101389.75;;;12.28
49593;BMP280;35499;51.482;4.264;2024-02-15T05:43:47;101391.47;;;12.26
49593;BMP280;35499;51.482;4.264;2024-02-15T05:46:18;101386.31;;;12.27
49593;BMP280;35499;51.482;4.264;2024-02-15T05:48:43;101386.31;;;12.27
49593;BMP280;35499;51.482;4.264;2024-02-15T05:51:09;101379.44;;;12.28
49593;BMP280;35499;51.482;4.264;2024-02-15T05:53:35;101391.47;;;12.29
49593;BMP280;35499;51.482;4.264;2024-02-15T05:56:05;101376.88;;;12.28
49593;BMP280;35499;51.482;4.264;2024-02-15T05:58:32;101378.59;;;12.29
49593;BMP280;35499;51.482;4.264;2024-02-15T06:00:58;101369.13;;;12.29
49593;BMP280;35499;51.482;4.264;2024-02-15T06:03:30;101376.00;;;12.30
49593;BMP280;35499;51.482;4.264;2024-02-15T06:05:57;101361.38;;;12.31
49593;BMP280;35499;51.482;4.264;2024-02-15T06:08:27;101357.13;;;12.30
49593;BMP280;35499;51.482;4.264;2024-02-15T06:10:53;101351.97;;;12.30
49593;BMP280;35499;51.482;4.264;2024-02-15T06:13:19;101351.97;;;12.28
49593;BMP280;35499;51.482;4.264;2024-02-15T06:15:45;101358.84;;;12.29
49593;BMP280;35499;51.482;4.264;2024-02-15T06:18:14;101364.84;;;12.30
49593;BMP280;35499;51.482;4.264;2024-02-15T06:20:41;101350.25;;;12.30
49593;BMP280;35499;51.482;4.264;2024-02-15T06:23:08;101343.34;;;12.31
49593;BMP280;35499;51.482;4.264;2024-02-15T06:25:34;101345.06;;;12.32
49593;BMP280;35499;51.482;4.264;2024-02-15T06:28:00;101337.31;;;12.32
49593;BMP280;35499;51.482;4.264;2024-02-15T06:30:28;101336.47;;;12.33
49593;BMP280;35499;51.482;4.264;2024-02-15T06:33:32;101350.19;;;12.34
49593;BMP280;35499;51.482;4.264;2024-02-15T06:36:16;101357.91;;;12.34
49593;BMP280;35499;51.482;4.264;2024-02-15T06:39:00;101352.75;;;12.34
49593;BMP280;35499;51.482;4.264;2024-02-15T06:41:44;101351.03;;;12.34
49593;BMP280;35499;51.482;4.264;2024-02-15T06:44:09;101352.75;;;12.33
49593;BMP280;35499;51.482;4.264;2024-02-15T06:46:34;101360.50;;;12.33
49593;BMP280;35499;51.482;4.264;2024-02-15T06:49:00;101352.78;;;12.32
49593;BMP280;35499;51.482;4.264;2024-02-15T06:51:25;101352.78;;;12.32
49593;BMP280;35499;51.482;4.264;2024-02-15T06:53:50;101340.75;;;12.31
49593;BMP280;35499;51.482;4.264;2024-02-15T06:56:20;101344.22;;;12.30
49593;BMP280;35499;51.482;4.264;2024-02-15T06:58:46;101346.81;;;12.28
49593;BMP280;35499;51.482;4.264;2024-02-15T07:01:13;101345.97;;;12.28
49593;BMP280;35499;51.482;4.264;2024-02-15T07:03:38;101345.97;;;12.28
49593;BMP280;35499;51.482;4.264;2024-02-15T07:06:04;101351.13;;;12.28
49593;BMP280;35499;51.482;4.264;2024-02-15T07:08:31;101345.97;;;12.28
49593;BMP280;35499;51.482;4.264;2024-02-15T07:10:56;101354.56;;;12.27
49593;BMP280;35499;51.482;4.264;2024-02-15T07:13:22;101349.41;;;12.27
49593;BMP280;35499;51.482;4.264;2024-02-15T07:15:47;101351.97;;;12.28
49593;BMP280;35499;51.482;4.264;2024-02-15T07:18:15;101360.56;;;12.27
49593;BMP280;35499;51.482;4.264;2024-02-15T07:20:41;101354.56;;;12.27
49593;BMP280;35499;51.482;4.264;2024-02-15T07:23:07;101356.28;;;12.26
49593;BMP280;35499;51.482;4.264;2024-02-15T07:25:32;101351.97;;;12.28
49593;BMP280;35499;51.482;4.264;2024-02-15T07:27:57;101358.84;;;12.29
49593;BMP280;35499;51.482;4.264;2024-02-15T07:30:23;101359.69;;;12.30
49593;BMP280;35499;51.482;4.264;2024-02-15T07:32:50;101368.28;;;12.30
49593;BMP280;35499;51.482;4.264;2024-02-15T07:35:15;101371.66;;;12.31
49593;BMP280;35499;51.482;4.264;2024-02-15T07:37:53;101367.41;;;12.30
49593;BMP280;35499;51.482;4.264;2024-02-15T07:40:24;101369.94;;;12.31
49593;BMP280;35499;51.482;4.264;2024-02-15T07:42:53;101373.38;;;12.32
49593;BMP280;35499;51.482;4.264;2024-02-15T07:45:18;101363.94;;;12.32
49593;BMP280;35499;51.482;4.264;2024-02-15T07:47:43;101355.34;;;12.33
49593;BMP280;35499;51.482;4.264;2024-02-15T07:50:10;101360.50;;;12.33
49593;BMP280;35499;51.482;4.264;2024-02-15T07:52:35;101362.22;;;12.33
49593;BMP280;35499;51.482;4.264;2024-02-15T07:55:01;101364.78;;;12.33
49593;BMP280;35499;51.482;4.264;2024-02-15T07:57:33;101358.75;;;12.35
49593;BMP280;35499;51.482;4.264;2024-02-15T07:59:59;101354.50;;;12.33
49593;BMP280;35499;51.482;4.264;2024-02-15T08:02:24;101354.44;;;12.35
49593;BMP280;35499;51.482;4.264;2024-02-15T08:04:53;101356.16;;;12.36
49593;BMP280;35499;51.482;4.264;2024-02-15T08:07:19;101346.69;;;12.38
49593;BMP280;35499;51.482;4.264;2024-02-15T08:09:45;101356.06;;;12.41
49593;BMP280;35499;51.482;4.264;2024-02-15T08:12:11;101347.50;;;12.40
49593;BMP280;35499;51.482;4.264;2024-02-15T08:14:37;101343.19;;;12.41
49593;BMP280;35499;51.482;4.264;2024-02-15T08:17:04;101352.63;;;12.42
49593;BMP280;35499;51.482;4.264;2024-02-15T08:19:30;101350.91;;;12.42
49593;BMP280;35499;51.482;4.264;2024-02-15T08:21:55;101331.09;;;12.46
49593;BMP280;35499;51.482;4.264;2024-02-15T08:24:21;101345.69;;;12.48
49593;BMP280;35499;51.482;4.264;2024-02-15T08:26:47;101359.41;;;12.50
49593;BMP280;35499;51.482;4.264;2024-02-15T08:29:12;101355.06;;;12.51
49593;BMP280;35499;51.482;4.264;2024-02-15T08:31:40;101364.50;;;12.53
49593;BMP280;35499;51.482;4.264;2024-02-15T08:34:06;101350.78;;;12.52
49593;BMP280;35499;51.482;4.264;2024-02-15T08:36:35;101357.56;;;12.56
49593;BMP280;35499;51.482;4.264;2024-02-15T08:39:00;101361.00;;;12.57
49593;BMP280;35499;51.482;4.264;2024-02-15T08:41:26;101366.16;;;12.57
49593;BMP280;35499;51.482;4.264;2024-02-15T08:43:53;101362.72;;;12.58
49593;BMP280;35499;51.482;4.264;2024-02-15T08:46:19;101361.81;;;12.60
49593;BMP280;35499;51.482;4.264;2024-02-15T08:48:45;101360.09;;;12.62
49593;BMP280;35499;51.482;4.264;2024-02-15T08:51:11;101360.97;;;12.63
49593;BMP280;35499;51.482;4.264;2024-02-15T08:53:37;101349.75;;;12.65
49593;BMP280;35499;51.482;4.264;2024-02-15T08:56:03;101354.03;;;12.68
49593;BMP280;35499;51.482;4.264;2024-02-15T08:58:29;101358.31;;;12.67
49593;BMP280;35499;51.482;4.264;2024-02-15T09:00:58;101346.28;;;12.68
49593;BMP280;35499;51.482;4.264;2024-02-15T09:03:23;101340.22;;;12.71
49593;BMP280;35499;51.482;4.264;2024-02-15T09:05:49;101341.84;;;12.75
49593;BMP280;35499;51.482;4.264;2024-02-15T09:08:14;101340.13;;;12.79
49593;BMP280;35499;51.482;4.264;2024-02-15T09:10:45;101347.78;;;12.82
49593;BMP280;35499;51.482;4.264;2024-02-15T09:13:10;101346.94;;;12.81
49593;BMP280;35499;51.482;4.264;2024-02-15T09:15:35;101341.78;;;12.81
49593;BMP280;35499;51.482;4.264;2024-02-15T09:18:01;101350.34;;;12.83
49593;BMP280;35499;51.482;4.264;2024-02-15T09:20:26;101337.47;;;12.83
49593;BMP280;35499;51.482;4.264;2024-02-15T09:22:53;101346.06;;;12.81
49593;BMP280;35499;51.482;4.264;2024-02-15T09:25:22;101344.34;;;12.83
49593;BMP280;35499;51.482;4.264;2024-02-15T09:27:51;101342.63;;;12.83
49593;BMP280;35499;51.482;4.264;2024-02-15T09:30:19;101340.03;;;12.83
49593;BMP280;35499;51.482;4.264;2024-02-15T09:32:44;101340.03;;;12.83
49593;BMP280;35499;51.482;4.264;2024-02-15T09:35:11;101344.28;;;12.87
49593;BMP280;35499;51.482;4.264;2024-02-15T09:37:46;101345.91;;;12.91
49593;BMP280;35499;51.482;4.264;2024-02-15T09:40:16;101339.03;;;12.93
49593;BMP280;35499;51.482;4.264;2024-02-15T09:42:46;101347.53;;;12.99
49593;BMP280;35499;51.482;4.264;2024-02-15T09:45:13;101350.88;;;13.04
49593;BMP280;35499;51.482;4.264;2024-02-15T09:47:40;101350.78;;;13.08
49593;BMP280;35499;51.482;4.264;2024-02-15T09:50:07;101347.13;;;13.21
49593;BMP280;35499;51.482;4.264;2024-02-15T09:52:33;101333.97;;;13.36
49593;BMP280;35499;51.482;4.264;2024-02-15T09:55:02;101332.03;;;13.49
49593;BMP280;35499;51.482;4.264;2024-02-15T09:57:29;101324.03;;;13.62
49593;BMP280;35499;51.482;4.264;2024-02-15T09:59:54;101328.03;;;13.77
49593;BMP280;35499;51.482;4.264;2024-02-15T10:04:30;101325.41;;;14.22
49593;BMP280;35499;51.482;4.264;2024-02-15T10:06:59;101323.34;;;14.37
49593;BMP280;35499;51.482;4.264;2024-02-15T10:09:31;101319.88;;;14.38
49593;BMP280;35499;51.482;4.264;2024-02-15T10:11:58;101320.56;;;14.45
49593;BMP280;35499;51.482;4.264;2024-02-15T10:14:24;101327.50;;;14.44
49593;BMP280;35499;51.482;4.264;2024-02-15T10:16:49;101314.47;;;14.49
49593;BMP280;35499;51.482;4.264;2024-02-15T10:19:15;101327.44;;;14.47
49593;BMP280;35499;51.482;4.264;2024-02-15T10:21:42;101318.81;;;14.47
49593;BMP280;35499;51.482;4.264;2024-02-15T10:24:08;101319.66;;;14.47
49593;BMP280;35499;51.482;4.264;2024-02-15T10:26:34;101312.00;;;14.44
49593;BMP280;35499;51.482;4.264;2024-02-15T10:29:08;101313.53;;;14.51
49593;BMP280;35499;51.482;4.264;2024-02-15T10:31:38;101320.31;;;14.56
49593;BMP280;35499;51.482;4.264;2024-02-15T10:34:05;101306.44;;;14.60
49593;BMP280;35499;51.482;4.264;2024-02-15T10:36:30;101317.59;;;14.62
49593;BMP280;35499;51.482;4.264;2024-02-15T10:39:14;101316.41;;;14.75
49593;BMP280;35499;51.482;4.264;2024-02-15T10:41:45;101319.81;;;14.78
49593;BMP280;35499;51.482;4.264;2024-02-15T10:44:18;101320.56;;;14.82
49593;BMP280;35499;51.482;4.264;2024-02-15T10:46:45;101309.25;;;14.85
49593;BMP280;35499;51.482;4.264;2024-02-15T10:49:18;101310.06;;;14.89
49593;BMP280;35499;51.482;4.264;2024-02-15T10:51:44;101309.97;;;14.93
49593;BMP280;35499;51.482;4.264;2024-02-15T10:54:15;101306.19;;;15.06
49593;BMP280;35499;51.482;4.264;2024-02-15T10:56:47;101305.91;;;15.18
49593;BMP280;35499;51.482;4.264;2024-02-15T10:59:19;101300.47;;;15.28
49593;BMP280;35499;51.482;4.264;2024-02-15T11:01:50;101303.66;;;15.37
49593;BMP280;35499;51.482;4.264;2024-02-15T11:04:20;101286.25;;;15.43
49593;BMP280;35499;51.482;4.264;2024-02-15T11:06:50;101290.31;;;15.52
49593;BMP280;35499;51.482;4.264;2024-02-15T11:09:16;101291.06;;;15.55
49593;BMP280;35499;51.482;4.264;2024-02-15T11:11:41;101288.16;;;15.67
49593;BMP280;35499;51.482;4.264;2024-02-15T11:14:23;101272.78;;;15.91
49593;BMP280;35499;51.482;4.264;2024-02-15T11:16:49;101274.34;;;16.26
49593;BMP280;35499;51.482;4.264;2024-02-15T11:22:00;101273.75;;;16.98
49593;BMP280;35499;51.482;4.264;2024-02-15T11:24:30;101268.41;;;17.26
49593;BMP280;35499;51.482;4.264;2024-02-15T11:27:01;101260.66;;;17.49
49593;BMP280;35499;51.482;4.264;2024-02-15T11:32:37;101256.41;;;17.94
49593;BMP280;35499;51.482;4.264;2024-02-15T11:37:55;101241.84;;;18.54
49593;BMP280;35499;51.482;4.264;2024-02-15T11:43:07;101231.13;;;19.23
49593;BMP280;35499;51.482;4.264;2024-02-15T11:45:34;101236.91;;;19.49
49593;BMP280;35499;51.482;4.264;2024-02-15T11:48:07;101224.25;;;19.79
49593;BMP280;35499;51.482;4.264;2024-02-15T11:50:36;101205.75;;;20.21
49593;BMP280;35499;51.482;4.264;2024-02-15T11:53:04;101207.44;;;20.22
49593;BMP280;35499;51.482;4.264;2024-02-15T11:55:40;101207.66;;;20.35
49593;BMP280;35499;51.482;4.264;2024-02-15T11:58:06;101219.22;;;20.99
49593;BMP280;35499;51.482;4.264;2024-02-15T12:00:35;101204.56;;;21.46
49593;BMP280;35499;51.482;4.264;2024-02-15T12:03:19;101207.28;;;21.60
49593;BMP280;35499;51.482;4.264;2024-02-15T12:06:03;101202.34;;;21.70
49593;BMP280;35499;51.482;4.264;2024-02-15T12:08:51;101203.94;;;21.73
49593;BMP280;35499;51.482;4.264;2024-02-15T12:11:35;101206.00;;;21.83
49593;BMP280;35499;51.482;4.264;2024-02-15T12:14:19;101194.81;;;21.65
49593;BMP280;35499;51.482;4.264;2024-02-15T12:17:08;101200.16;;;21.47
49593;BMP280;35499;51.482;4.264;2024-02-15T12:19:53;101196.66;;;21.63
49593;BMP280;35499;51.482;4.264;2024-02-15T12:24:55;101185.09;;;21.98
49593;BMP280;35499;51.482;4.264;2024-02-15T12:27:21;101195.00;;;21.77
49593;BMP280;35499;51.482;4.264;2024-02-15T12:29:58;101192.22;;;21.48
49593;BMP280;35499;51.482;4.264;2024-02-15T12:32:25;101191.81;;;21.24
49593;BMP280;35499;51.482;4.264;2024-02-15T12:34:51;101181.66;;;21.01
49593;BMP280;35499;51.482;4.264;2024-02-15T12:37:22;101176.72;;;20.79
49593;BMP280;35499;51.482;4.264;2024-02-15T12:39:49;101179.47;;;20.60
49593;BMP280;35499;51.482;4.264;2024-02-15T12:42:18;101167.63;;;20.36
49593;BMP280;35499;51.482;4.264;2024-02-15T12:44:45;101165.09;;;20.17
49593;BMP280;35499;51.482;4.264;2024-02-15T12:47:21;101156.97;;;20.05
49593;BMP280;35499;51.482;4.264;2024-02-15T12:49:50;101154.75;;;19.97
49593;BMP280;35499;51.482;4.264;2024-02-15T12:52:35;101156.44;;;19.80
49593;BMP280;35499;51.482;4.264;2024-02-15T12:55:08;101143.19;;;19.67
49593;BMP280;35499;51.482;4.264;2024-02-15T12:57:34;101148.94;;;19.55
49593;BMP280;35499;51.482;4.264;2024-02-15T13:00:01;101139.88;;;19.44
49593;BMP280;35499;51.482;4.264;2024-02-15T13:02:26;101143.31;;;19.44
49593;BMP280;35499;51.482;4.264;2024-02-15T13:04:57;101146.50;;;19.51
49593;BMP280;35499;51.482;4.264;2024-02-15T13:07:23;101129.09;;;19.71
49593;BMP280;35499;51.482;4.264;2024-02-15T13:09:48;101128.78;;;19.94
49593;BMP280;35499;51.482;4.264;2024-02-15T13:12:14;101115.22;;;20.23
49593;BMP280;35499;51.482;4.264;2024-02-15T13:14:40;101109.22;;;20.39
49593;BMP280;35499;51.482;4.264;2024-02-15T13:17:05;101106.56;;;20.57
49593;BMP280;35499;51.482;4.264;2024-02-15T13:19:31;101104.78;;;20.90
49593;BMP280;35499;51.482;4.264;2024-02-15T13:21:57;101092.03;;;21.33
49593;BMP280;35499;51.482;4.264;2024-02-15T13:24:22;101082.47;;;21.78
49593;BMP280;35499;51.482;4.264;2024-02-15T13:26:54;101076.06;;;22.14
49593;BMP280;35499;51.482;4.264;2024-02-15T13:29:21;101073.00;;;22.36
49593;BMP280;35499;51.482;4.264;2024-02-15T13:31:46;101073.88;;;22.50
49593;BMP280;35499;51.482;4.264;2024-02-15T13:34:12;101056.41;;;22.51
49593;BMP280;35499;51.482;4.264;2024-02-15T13:36:37;101058.94;;;22.37
49593;BMP280;35499;51.482;4.264;2024-02-15T13:39:03;101056.38;;;22.22
49593;BMP280;35499;51.482;4.264;2024-02-15T13:41:30;101048.31;;;22.11
49593;BMP280;35499;51.482;4.264;2024-02-15T13:43:55;101054.72;;;22.21
49593;BMP280;35499;51.482;4.264;2024-02-15T13:46:20;101058.59;;;22.14
49593;BMP280;35499;51.482;4.264;2024-02-15T13:48:45;101047.97;;;22.02
49593;BMP280;35499;51.482;4.264;2024-02-15T13:51:11;101047.84;;;21.90
49593;BMP280;35499;51.482;4.264;2024-02-15T13:53:36;101044.72;;;21.84
49593;BMP280;35499;51.482;4.264;2024-02-15T13:56:02;101031.84;;;21.79
49593;BMP280;35499;51.482;4.264;2024-02-15T13:58:28;101030.16;;;21.78
49593;BMP280;35499;51.482;4.264;2024-02-15T14:00:53;101025.72;;;21.80
49593;BMP280;35499;51.482;4.264;2024-02-15T14:03:18;101043.09;;;21.66
49593;BMP280;35499;51.482;4.264;2024-02-15T14:05:47;101031.03;;;21.64
49593;BMP280;35499;51.482;4.264;2024-02-15T14:08:14;101022.06;;;21.68
49593;BMP280;35499;51.482;4.264;2024-02-15T14:10:40;101009.75;;;21.69
49593;BMP280;35499;51.482;4.264;2024-02-15T14:13:06;101009.19;;;21.65
49593;BMP280;35499;51.482;4.264;2024-02-15T14:15:33;101017.94;;;21.49